Time;durP1;ratioP1;P1;durP2;ratioP2;P2;SDS_P1;SDS_P2;PMS_P1;PMS_P2;Temp;Humidity;BMP_temperature;BMP_pressure;BME280_temperature;BME280_humidity;BME280_pressure;Samples;Min_cycle;Max_cycle;Signal;HPM_P1;HPM_P2
2022/04/22 00:01:37;;;;;;;25.17;10.50;;;;;;;;;;4973096;28;20030;-61
2022/04/22 00:04:03;;;;;;;23.77;10.60;;;;;;;;;;4972660;28;20085;-63
2022/04/22 00:06:29;;;;;;;23.70;10.25;;;;;;;;;;4971818;28;20049;-60
2022/04/22 00:08:55;;;;;;;24.42;9.02;;;;;;;;;;4973057;28;20497;-59
2022/04/22 00:11:30;;;;;;;18.88;7.85;;;;;;;;;;4973039;28;20532;-60
2022/04/22 00:13:58;;;;;;;13.57;6.20;;;;;;;;;;4976455;28;20054;-59
2022/04/22 00:16:27;;;;;;;14.18;5.53;;;;;;;;;;4977069;28;20031;-59
2022/04/22 00:21:28;;;;;;;10.60;5.40;;;;;;;;;;5860555;22;20056;-61
2022/04/22 00:23:54;;;;;;;8.82;5.25;;;;;;;;;;5033831;28;20029;-58
2022/04/22 00:26:20;;;;;;;13.30;5.20;;;;;;;;;;5035007;28;20394;-58
2022/04/22 00:28:46;;;;;;;11.20;4.97;;;;;;;;;;5035252;28;20489;-58
2022/04/22 00:31:12;;;;;;;14.50;5.35;;;;;;;;;;5035186;28;20041;-60
2022/04/22 00:33:38;;;;;;;13.27;5.40;;;;;;;;;;5035433;28;20389;-60
2022/04/22 00:36:03;;;;;;;11.70;4.18;;;;;;;;;;5035283;28;20104;-60
2022/04/22 00:38:29;;;;;;;9.05;4.63;;;;;;;;;;5035050;28;20061;-59
2022/04/22 00:40:55;;;;;;;11.07;4.65;;;;;;;;;;5035195;28;20025;-59
2022/04/22 00:43:25;;;;;;;9.30;4.10;;;;;;;;;;5035348;28;20653;-59
2022/04/22 00:45:52;;;;;;;8.97;4.20;;;;;;;;;;5035225;28;20030;-61
2022/04/22 00:48:19;;;;;;;9.60;4.13;;;;;;;;;;5034564;28;20040;-59
2022/04/22 00:50:45;;;;;;;13.90;4.43;;;;;;;;;;5034247;28;20096;-59
2022/04/22 00:53:12;;;;;;;9.70;4.57;;;;;;;;;;5034364;28;20064;-60
2022/04/22 00:55:39;;;;;;;9.25;4.43;;;;;;;;;;5034358;28;20014;-59
2022/04/22 00:58:06;;;;;;;10.50;4.35;;;;;;;;;;5034940;28;20037;-59
2022/04/22 01:00:32;;;;;;;8.15;4.05;;;;;;;;;;5034950;28;20030;-58
2022/04/22 01:02:57;;;;;;;8.38;4.20;;;;;;;;;;5034694;28;20108;-59
2022/04/22 01:11:02;;;;;;;12.02;4.50;;;;;;;;;;4954187;29;20043;-59
2022/04/22 01:13:28;;;;;;;9.68;4.63;;;;;;;;;;4954460;29;20690;-59
2022/04/22 01:15:54;;;;;;;7.20;3.83;;;;;;;;;;4953828;29;20086;-59
2022/04/22 01:18:19;;;;;;;12.27;4.32;;;;;;;;;;4953703;29;20039;-57
2022/04/22 01:20:45;;;;;;;9.20;3.90;;;;;;;;;;4953437;29;20038;-59
2022/04/22 01:23:11;;;;;;;14.07;3.80;;;;;;;;;;4952835;28;20047;-60
2022/04/22 01:25:36;;;;;;;9.60;3.95;;;;;;;;;;4954169;29;20034;-58
2022/04/22 01:28:02;;;;;;;12.23;4.57;;;;;;;;;;4953998;29;20043;-60
2022/04/22 01:30:28;;;;;;;10.68;4.63;;;;;;;;;;4954116;29;20035;-60
2022/04/22 01:32:56;;;;;;;11.18;4.22;;;;;;;;;;4954023;29;20512;-60
2022/04/22 01:35:23;;;;;;;12.32;4.65;;;;;;;;;;4953788;29;20473;-58
2022/04/22 01:37:49;;;;;;;8.95;4.65;;;;;;;;;;4954016;29;20145;-60
2022/04/22 01:40:15;;;;;;;20.92;7.35;;;;;;;;;;4954129;29;20031;-59
2022/04/22 01:42:41;;;;;;;29.70;9.85;;;;;;;;;;4954131;29;20035;-59
2022/04/22 01:45:08;;;;;;;33.80;10.80;;;;;;;;;;4953530;29;20094;-59
2022/04/22 01:47:34;;;;;;;34.08;10.98;;;;;;;;;;4977325;28;20034;-59
2022/04/22 01:50:00;;;;;;;28.10;10.23;;;;;;;;;;5013800;28;20041;-57
2022/04/22 01:52:26;;;;;;;25.70;9.27;;;;;;;;;;5013579;28;20026;-60
2022/04/22 01:54:54;;;;;;;27.73;8.75;;;;;;;;;;5014152;28;20026;-59
2022/04/22 01:57:20;;;;;;;23.88;8.27;;;;;;;;;;5032183;28;20470;-59
2022/04/22 01:59:46;;;;;;;30.10;9.43;;;;;;;;;;5033841;28;20033;-59
2022/04/22 02:02:16;;;;;;;22.30;8.52;;;;;;;;;;5033954;28;20092;-58
2022/04/22 02:04:42;;;;;;;24.38;8.93;;;;;;;;;;5033706;28;20095;-59
2022/04/22 02:07:08;;;;;;;17.55;7.13;;;;;;;;;;5033603;28;20056;-60
2022/04/22 02:09:34;;;;;;;14.40;5.97;;;;;;;;;;5033744;28;20034;-58
2022/04/22 02:12:00;;;;;;;15.45;5.85;;;;;;;;;;5033688;28;20152;-57
2022/04/22 02:14:25;;;;;;;13.65;5.32;;;;;;;;;;5033667;28;20022;-60
2022/04/22 02:16:54;;;;;;;12.73;5.10;;;;;;;;;;5015245;28;20349;-60
2022/04/22 02:19:20;;;;;;;10.32;4.88;;;;;;;;;;5032678;28;20034;-57
2022/04/22 02:21:46;;;;;;;9.13;4.50;;;;;;;;;;5032753;28;20507;-60
2022/04/22 02:24:11;;;;;;;11.52;4.85;;;;;;;;;;5032648;28;20786;-59
2022/04/22 02:29:22;;;;;;;15.80;6.35;;;;;;;;;;5033444;28;20032;-60
2022/04/22 02:31:52;;;;;;;18.58;8.60;;;;;;;;;;5033038;28;20026;-59
2022/04/22 02:34:18;;;;;;;21.25;8.82;;;;;;;;;;5033201;28;20026;-59
2022/04/22 02:36:44;;;;;;;19.17;7.25;;;;;;;;;;5032748;28;20037;-59
2022/04/22 02:39:10;;;;;;;16.85;8.93;;;;;;;;;;5032983;28;20053;-59
2022/04/22 02:47:03;;;;;;;16.02;7.68;;;;;;;;;;5032221;28;20033;-60
2022/04/22 02:49:29;;;;;;;18.25;8.52;;;;;;;;;;5032288;28;20033;-58
2022/04/22 02:51:55;;;;;;;17.85;8.38;;;;;;;;;;5032264;28;20022;-56
2022/04/22 02:54:20;;;;;;;17.05;7.60;;;;;;;;;;5032784;28;20032;-58
2022/04/22 02:56:46;;;;;;;12.80;7.05;;;;;;;;;;5032790;28;20029;-59
2022/04/22 02:59:11;;;;;;;15.45;8.18;;;;;;;;;;5032594;28;20466;-56
2022/04/22 03:01:37;;;;;;;18.23;8.10;;;;;;;;;;5031903;28;20470;-58
2022/04/22 03:04:04;;;;;;;25.30;7.60;;;;;;;;;;5032018;28;20382;-60
2022/04/22 03:06:29;;;;;;;15.15;6.68;;;;;;;;;;5032135;28;20037;-59
2022/04/22 03:08:55;;;;;;;12.48;6.28;;;;;;;;;;5032312;28;20105;-59
2022/04/22 03:11:21;;;;;;;12.30;5.68;;;;;;;;;;5032603;28;20021;-60
2022/04/22 03:13:50;;;;;;;12.18;6.03;;;;;;;;;;5032536;28;20069;-60
2022/04/22 03:16:18;;;;;;;12.88;5.50;;;;;;;;;;5032141;28;20051;-60
2022/04/22 03:18:43;;;;;;;15.05;5.95;;;;;;;;;;5032512;28;20026;-59
2022/04/22 03:21:09;;;;;;;14.88;5.75;;;;;;;;;;5032026;28;20466;-59
2022/04/22 03:23:34;;;;;;;20.13;6.30;;;;;;;;;;5032018;28;20053;-60
2022/04/22 03:26:00;;;;;;;15.38;5.80;;;;;;;;;;5032402;28;20083;-58
2022/04/22 03:28:26;;;;;;;16.33;5.88;;;;;;;;;;5032293;28;20025;-60
2022/04/22 03:30:51;;;;;;;20.67;7.43;;;;;;;;;;5031314;28;20029;-60
2022/04/22 03:33:18;;;;;;;13.80;6.43;;;;;;;;;;5031569;28;20117;-56
2022/04/22 03:35:44;;;;;;;16.73;6.90;;;;;;;;;;5031652;28;20057;-61
2022/04/22 03:38:11;;;;;;;13.02;6.43;;;;;;;;;;5031416;28;20062;-60
2022/04/22 03:40:37;;;;;;;14.57;7.38;;;;;;;;;;5031961;28;20067;-61
2022/04/22 03:43:03;;;;;;;15.90;6.07;;;;;;;;;;5031762;28;20065;-60
2022/04/22 03:45:29;;;;;;;22.25;7.40;;;;;;;;;;5031641;28;20101;-60
2022/04/22 03:47:58;;;;;;;12.85;6.80;;;;;;;;;;5031962;28;20099;-58
2022/04/22 03:50:26;;;;;;;16.85;6.65;;;;;;;;;;5031966;28;20112;-59
2022/04/22 03:52:52;;;;;;;14.00;6.72;;;;;;;;;;5031771;28;20029;-59
2022/04/22 03:55:19;;;;;;;17.17;7.55;;;;;;;;;;5031749;28;20462;-58
2022/04/22 04:00:29;;;;;;;15.38;7.03;;;;;;;;;;5031371;28;20072;-60
2022/04/22 04:02:54;;;;;;;14.68;7.10;;;;;;;;;;5031293;28;20417;-59
2022/04/22 04:05:20;;;;;;;12.95;6.20;;;;;;;;;;5031179;28;20489;-61
2022/04/22 04:07:46;;;;;;;15.70;6.28;;;;;;;;;;5031008;28;20041;-59
2022/04/22 04:15:58;;;;;;;11.13;6.43;;;;;;;;;;5032078;28;20122;-59
2022/04/22 04:18:31;;;;;;;13.98;6.85;;;;;;;;;;5031742;28;20025;-59
2022/04/22 04:23:42;;;;;;;12.10;6.13;;;;;;;;;;5031642;28;20061;-57
2022/04/22 04:26:07;;;;;;;17.35;6.85;;;;;;;;;;5031800;28;20021;-56
2022/04/22 04:28:37;;;;;;;14.07;6.07;;;;;;;;;;5030852;28;20025;-59
2022/04/22 04:31:04;;;;;;;17.35;7.40;;;;;;;;;;5030885;28;20073;-57
2022/04/22 04:33:30;;;;;;;17.45;8.15;;;;;;;;;;5030988;28;20478;-59
2022/04/22 04:35:55;;;;;;;12.60;7.75;;;;;;;;;;5031011;28;20025;-59
2022/04/22 04:38:22;;;;;;;21.17;8.77;;;;;;;;;;5031168;28;20029;-59
2022/04/22 04:40:48;;;;;;;15.50;8.77;;;;;;;;;;5031488;28;20025;-59
2022/04/22 04:43:14;;;;;;;19.08;8.43;;;;;;;;;;5030884;28;20032;-59
2022/04/22 04:45:40;;;;;;;17.50;6.35;;;;;;;;;;5030960;28;20025;-60
2022/04/22 04:48:06;;;;;;;15.73;7.65;;;;;;;;;;5030637;28;20033;-59
2022/04/22 04:50:32;;;;;;;13.77;7.22;;;;;;;;;;5030728;28;20083;-61
2022/04/22 04:52:58;;;;;;;20.42;8.57;;;;;;;;;;5030659;28;20025;-59
2022/04/22 04:55:24;;;;;;;24.17;10.20;;;;;;;;;;5031526;28;20449;-60
2022/04/22 04:57:49;;;;;;;17.77;7.97;;;;;;;;;;5031001;28;20137;-59
2022/04/22 05:00:20;;;;;;;18.70;7.82;;;;;;;;;;5035084;28;20029;-59
2022/04/22 05:02:46;;;;;;;;;;;;;;;;;;5035587;28;20029;-60
2022/04/22 05:05:12;;;;;;;15.27;7.00;;;;;;;;;;5034775;28;20289;-59
2022/04/22 05:07:58;;;;;;;15.77;7.65;;;;;;;;;;5034655;28;20029;-61
2022/04/22 05:10:26;;;;;;;16.92;7.47;;;;;;;;;;5034719;28;20071;-58
2022/04/22 05:12:52;;;;;;;20.70;7.90;;;;;;;;;;5034452;28;20532;-60
2022/04/22 05:15:19;;;;;;;13.13;7.35;;;;;;;;;;5034260;28;20087;-58
2022/04/22 05:17:46;;;;;;;17.23;7.55;;;;;;;;;;5033830;28;20505;-59
2022/04/22 05:20:13;;;;;;;16.33;8.70;;;;;;;;;;5033964;28;20569;-59
2022/04/22 05:22:39;;;;;;;23.05;9.27;;;;;;;;;;5033495;28;20045;-60
2022/04/22 05:25:07;;;;;;;19.80;9.35;;;;;;;;;;5034065;28;20030;-59
2022/04/22 05:27:34;;;;;;;17.95;9.57;;;;;;;;;;5033977;28;20398;-59
2022/04/22 05:32:47;;;;;;;16.75;7.80;;;;;;;;;;5034742;28;20071;-59
2022/04/22 05:35:15;;;;;;;13.90;7.32;;;;;;;;;;5034339;28;20021;-59
2022/04/22 05:37:53;;;;;;;14.65;7.60;;;;;;;;;;5034457;28;20033;-59
2022/04/22 05:40:21;;;;;;;16.70;8.07;;;;;;;;;;5033981;28;20530;-59
2022/04/22 05:42:48;;;;;;;14.10;8.63;;;;;;;;;;5034077;28;20536;-57
2022/04/22 05:45:15;;;;;;;20.55;9.57;;;;;;;;;;5033338;28;20030;-59
2022/04/22 05:47:41;;;;;;;24.85;10.23;;;;;;;;;;5033349;28;20017;-55
2022/04/22 05:50:12;;;;;;;23.73;9.80;;;;;;;;;;5033407;28;20037;-59
2022/04/22 05:52:39;;;;;;;24.38;9.90;;;;;;;;;;5033486;28;20470;-59
2022/04/22 05:55:18;;;;;;;28.63;10.90;;;;;;;;;;5033531;28;20130;-57
2022/04/22 05:57:46;;;;;;;22.60;9.32;;;;;;;;;;5033919;28;20036;-59
2022/04/22 06:00:14;;;;;;;27.92;11.65;;;;;;;;;;5015918;28;20021;-57
2022/04/22 06:02:41;;;;;;;28.17;11.63;;;;;;;;;;5033332;28;20099;-59
2022/04/22 06:05:08;;;;;;;18.23;9.57;;;;;;;;;;5033064;28;20025;-60
2022/04/22 06:07:33;;;;;;;21.48;9.45;;;;;;;;;;5033131;28;20458;-60
2022/04/22 06:12:43;;;;;;;21.15;8.90;;;;;;;;;;5033746;28;20111;-59
2022/04/22 06:15:08;;;;;;;21.17;8.57;;;;;;;;;;5033455;28;20061;-59
2022/04/22 06:17:34;;;;;;;15.80;8.88;;;;;;;;;;5033030;28;20026;-59
2022/04/22 06:20:00;;;;;;;15.23;7.97;;;;;;;;;;5033500;28;20083;-60
2022/04/22 06:22:27;;;;;;;16.08;8.70;;;;;;;;;;5032357;28;20065;-59
2022/04/22 06:24:54;;;;;;;14.57;7.55;;;;;;;;;;5032214;28;20116;-60
2022/04/22 06:27:38;;;;;;;13.48;7.57;;;;;;;;;;5032391;28;20033;-61
2022/04/22 06:30:14;;;;;;;11.98;7.65;;;;;;;;;;5032166;28;20543;-60
2022/04/22 06:32:41;;;;;;;13.82;7.40;;;;;;;;;;5031712;28;20053;-59
2022/04/22 06:35:08;;;;;;;14.95;8.10;;;;;;;;;;5031628;28;20029;-59
2022/04/22 06:37:37;;;;;;;17.80;8.00;;;;;;;;;;5031623;28;20029;-59
2022/04/22 06:45:49;;;;;;;18.85;9.38;;;;;;;;;;5032358;28;20036;-60
2022/04/22 06:48:35;;;;;;;18.30;9.98;;;;;;;;;;5032102;28;20037;-60
2022/04/22 06:51:02;;;;;;;17.70;8.98;;;;;;;;;;5031886;28;20112;-61
2022/04/22 06:53:28;;;;;;;15.55;8.32;;;;;;;;;;5031742;28;20037;-60
2022/04/22 06:55:58;;;;;;;17.70;7.93;;;;;;;;;;5031922;28;20175;-60
2022/04/22 06:58:25;;;;;;;;;;;;;;;;;;5032335;28;20037;-59
2022/04/22 07:00:51;;;;;;;10.68;6.40;;;;;;;;;;5031216;28;19913;-60
2022/04/22 07:03:17;;;;;;;11.27;6.88;;;;;;;;;;5031205;28;20033;-60
2022/04/22 07:05:48;;;;;;;13.15;7.07;;;;;;;;;;5030668;28;20033;-58
2022/04/22 07:08:14;;;;;;;10.52;6.55;;;;;;;;;;5031053;28;20460;-60
2022/04/22 07:10:41;;;;;;;13.60;7.20;;;;;;;;;;5026172;28;20026;-60
2022/04/22 07:13:08;;;;;;;9.68;6.22;;;;;;;;;;5011771;28;20133;-61
2022/04/22 07:15:35;;;;;;;13.48;6.75;;;;;;;;;;5011895;28;20025;-59
2022/04/22 07:18:00;;;;;;;13.45;6.47;;;;;;;;;;5011761;28;20030;-59
2022/04/22 07:20:26;;;;;;;12.63;6.78;;;;;;;;;;5011743;28;20022;-60
2022/04/22 07:22:53;;;;;;;12.80;6.93;;;;;;;;;;4994966;28;185680;-61
2022/04/22 07:25:20;;;;;;;14.55;7.18;;;;;;;;;;5030590;28;20042;-59
2022/04/22 07:27:46;;;;;;;15.23;7.07;;;;;;;;;;5032170;28;20040;-60
2022/04/22 07:30:15;;;;;;;13.50;7.60;;;;;;;;;;5031971;28;20061;-59
2022/04/22 07:32:42;;;;;;;12.90;7.00;;;;;;;;;;5032194;28;20026;-59
2022/04/22 07:35:12;;;;;;;10.63;6.60;;;;;;;;;;5032014;28;20033;-60
2022/04/22 07:37:43;;;;;;;12.70;6.88;;;;;;;;;;5031839;28;20068;-60
2022/04/22 07:40:09;;;;;;;12.75;6.70;;;;;;;;;;5031763;28;20037;-60
2022/04/22 07:42:36;;;;;;;9.25;6.40;;;;;;;;;;5032086;28;20036;-59
2022/04/22 07:47:49;;;;;;;13.95;6.35;;;;;;;;;;5031610;28;20168;-59
2022/04/22 07:50:18;;;;;;;12.98;6.38;;;;;;;;;;5031432;28;20025;-59
2022/04/22 07:52:47;;;;;;;14.85;6.63;;;;;;;;;;5031102;28;20067;-59
2022/04/22 07:55:14;;;;;;;13.13;6.53;;;;;;;;;;5031312;28;20535;-60
2022/04/22 07:57:41;;;;;;;16.98;7.07;;;;;;;;;;5031895;28;20080;-59
2022/04/22 08:00:10;;;;;;;10.05;6.22;;;;;;;;;;5031430;28;20579;-58
2022/04/22 08:02:40;;;;;;;14.20;6.10;;;;;;;;;;5028032;28;20046;-58
2022/04/22 08:05:08;;;;;;;14.10;7.00;;;;;;;;;;5024428;28;20034;-59
2022/04/22 08:07:34;;;;;;;13.52;6.95;;;;;;;;;;5022714;28;20033;-60
2022/04/22 08:09:59;;;;;;;15.48;7.03;;;;;;;;;;5021546;28;20029;-60
2022/04/22 08:12:25;;;;;;;11.55;6.68;;;;;;;;;;5021811;28;20049;-60
2022/04/22 08:14:50;;;;;;;12.27;6.68;;;;;;;;;;5020445;28;20022;-60
2022/04/22 08:17:16;;;;;;;18.15;6.22;;;;;;;;;;5020362;28;20040;-60
2022/04/22 08:19:44;;;;;;;10.27;6.50;;;;;;;;;;5020947;28;20034;-59
2022/04/22 08:22:10;;;;;;;10.43;6.35;;;;;;;;;;5024000;28;20132;-59
2022/04/22 08:24:35;;;;;;;12.85;7.60;;;;;;;;;;5022209;28;20080;-59
2022/04/22 08:27:01;;;;;;;12.80;6.72;;;;;;;;;;5019483;28;20061;-59
2022/04/22 08:29:27;;;;;;;12.40;7.03;;;;;;;;;;5021319;28;20459;-59
2022/04/22 08:31:53;;;;;;;11.90;6.45;;;;;;;;;;5020315;28;20018;-61
2022/04/22 08:34:19;;;;;;;11.30;6.20;;;;;;;;;;5024142;28;20484;-61
2022/04/22 08:36:47;;;;;;;11.65;5.68;;;;;;;;;;5023395;28;20378;-60
2022/04/22 08:39:13;;;;;;;11.23;5.45;;;;;;;;;;5024411;28;20051;-60
2022/04/22 08:41:41;;;;;;;13.68;5.95;;;;;;;;;;5030112;28;21130;-60
2022/04/22 08:44:07;;;;;;;10.18;5.60;;;;;;;;;;5023557;28;20463;-60
2022/04/22 08:52:02;;;;;;;11.40;6.70;;;;;;;;;;5024341;28;20024;-60
2022/04/22 08:54:28;;;;;;;10.50;5.93;;;;;;;;;;5023157;28;20026;-60
2022/04/22 08:56:55;;;;;;;9.65;6.22;;;;;;;;;;5025168;28;20083;-59
2022/04/22 08:59:20;;;;;;;13.02;6.88;;;;;;;;;;5023594;28;20109;-60
2022/04/22 09:01:46;;;;;;;12.35;6.57;;;;;;;;;;5023333;28;20156;-61
2022/04/22 09:04:11;;;;;;;10.82;5.93;;;;;;;;;;5024574;28;20028;-60
2022/04/22 09:06:37;;;;;;;12.18;6.25;;;;;;;;;;5023067;28;20021;-60
2022/04/22 09:09:07;;;;;;;11.93;6.00;;;;;;;;;;5023455;28;20034;-59
2022/04/22 09:11:52;;;;;;;11.45;6.32;;;;;;;;;;5024841;28;20121;-59
2022/04/22 09:14:23;;;;;;;14.60;5.47;;;;;;;;;;5022740;28;20502;-60
2022/04/22 09:16:50;;;;;;;;;;;;;;;;;;5031968;28;20482;-60
2022/04/22 09:19:18;;;;;;;10.50;5.70;;;;;;;;;;5034642;28;19988;-61
2022/04/22 09:21:56;;;;;;;11.88;5.40;;;;;;;;;;5034094;28;20414;-60
2022/04/22 09:24:21;;;;;;;12.30;4.88;;;;;;;;;;5032654;28;20505;-60
2022/04/22 09:27:02;;;;;;;9.63;4.97;;;;;;;;;;5035208;28;20029;-60
2022/04/22 09:29:28;;;;;;;8.55;4.03;;;;;;;;;;5034802;28;20478;-60
2022/04/22 09:31:53;;;;;;;7.22;3.50;;;;;;;;;;5034761;28;20037;-59
2022/04/22 09:34:39;;;;;;;10.30;3.70;;;;;;;;;;5034362;28;20108;-60
2022/04/22 09:42:49;;;;;;;5.57;3.47;;;;;;;;;;5034854;28;20044;-59
2022/04/22 09:45:15;;;;;;;5.70;3.40;;;;;;;;;;5034208;28;20025;-59
2022/04/22 09:47:41;;;;;;;5.22;3.00;;;;;;;;;;5034347;28;20394;-59
2022/04/22 09:50:12;;;;;;;7.50;3.40;;;;;;;;;;5034436;28;20028;-59
2022/04/22 09:52:43;;;;;;;5.47;2.90;;;;;;;;;;5034259;28;20036;-60
2022/04/22 09:55:09;;;;;;;;;;;;;;;;;;5034594;28;20033;-59
2022/04/22 09:57:58;;;;;;;3.85;2.25;;;;;;;;;;5034184;28;20011;-59
2022/04/22 10:00:30;;;;;;;5.25;3.40;;;;;;;;;;5034167;28;20029;-61
2022/04/22 10:02:56;;;;;;;6.75;2.78;;;;;;;;;;5033871;28;20390;-59
2022/04/22 10:05:24;;;;;;;4.57;2.90;;;;;;;;;;5034026;28;20022;-60
2022/04/22 10:07:57;;;;;;;6.05;2.97;;;;;;;;;;5033269;28;20030;-59
2022/04/22 10:10:52;;;;;;;8.35;3.00;;;;;;;;;;5033905;28;20034;-61
2022/04/22 10:13:21;;;;;;;4.20;2.50;;;;;;;;;;4934316;29;20090;-61
2022/04/22 10:15:48;;;;;;;6.53;3.05;;;;;;;;;;4934080;29;20481;-60
2022/04/22 10:18:15;;;;;;;7.32;3.10;;;;;;;;;;4934141;29;20085;-60
2022/04/22 10:20:43;;;;;;;7.85;3.03;;;;;;;;;;4934415;29;20059;-60
2022/04/22 10:23:09;;;;;;;11.65;3.50;;;;;;;;;;4933774;29;20040;-60
2022/04/22 10:25:34;;;;;;;4.40;2.78;;;;;;;;;;4934288;29;20031;-60
2022/04/22 10:28:04;;;;;;;6.22;3.08;;;;;;;;;;4933983;29;20067;-60
2022/04/22 10:30:31;;;;;;;4.15;2.80;;;;;;;;;;4917909;29;20036;-60
2022/04/22 10:32:57;;;;;;;5.30;2.90;;;;;;;;;;4943329;29;20031;-59
2022/04/22 10:35:24;;;;;;;6.20;3.70;;;;;;;;;;4953229;29;20509;-60
2022/04/22 10:37:51;;;;;;;8.45;3.20;;;;;;;;;;4953042;29;20397;-59
2022/04/22 10:40:18;;;;;;;10.93;3.40;;;;;;;;;;4952862;29;20031;-60
2022/04/22 10:42:43;;;;;;;3.25;2.40;;;;;;;;;;4953272;29;20110;-59
2022/04/22 10:47:55;;;;;;;6.40;3.60;;;;;;;;;;4953397;29;20105;-59
2022/04/22 10:50:23;;;;;;;7.15;3.70;;;;;;;;;;4991275;28;20049;-59
2022/04/22 10:53:01;;;;;;;8.43;3.67;;;;;;;;;;5013388;28;20036;-59
2022/04/22 10:55:28;;;;;;;6.13;3.72;;;;;;;;;;5013195;28;20368;-59
2022/04/22 10:58:14;;;;;;;5.25;3.10;;;;;;;;;;5012996;28;20095;-59
2022/04/22 11:00:42;;;;;;;6.53;3.35;;;;;;;;;;4999074;28;20045;-60
2022/04/22 11:03:25;;;;;;;6.78;3.63;;;;;;;;;;5013135;28;20030;-60
2022/04/22 11:05:58;;;;;;;9.98;5.72;;;;;;;;;;5013186;28;20033;-60
2022/04/22 11:08:32;;;;;;;9.05;5.00;;;;;;;;;;5014463;28;20029;-60
2022/04/22 11:11:03;;;;;;;11.20;5.63;;;;;;;;;;5026688;28;20033;-59
2022/04/22 11:13:32;;;;;;;9.15;5.07;;;;;;;;;;5029812;28;20032;-61
2022/04/22 11:16:14;;;;;;;5.68;3.63;;;;;;;;;;5032627;28;20462;-60
2022/04/22 11:18:41;;;;;;;8.68;4.15;;;;;;;;;;5032782;28;20037;-61
2022/04/22 11:21:19;;;;;;;11.88;5.63;;;;;;;;;;5032248;28;20454;-59
2022/04/22 11:23:45;;;;;;;8.27;5.68;;;;;;;;;;5032552;28;20441;-59
2022/04/22 11:26:14;;;;;;;9.77;6.55;;;;;;;;;;5028027;28;20053;-61
2022/04/22 11:28:41;;;;;;;8.75;6.60;;;;;;;;;;5029932;28;20038;-60
2022/04/22 11:31:10;;;;;;;11.35;7.25;;;;;;;;;;5021093;28;20018;-60
2022/04/22 11:33:44;;;;;;;11.40;7.63;;;;;;;;;;5012378;28;20033;-59
2022/04/22 11:36:10;;;;;;;11.25;7.22;;;;;;;;;;5027883;28;20033;-59
2022/04/22 11:38:48;;;;;;;8.50;6.03;;;;;;;;;;5014377;28;20044;-60
2022/04/22 11:41:14;;;;;;;10.68;7.00;;;;;;;;;;5032305;28;20126;-59
2022/04/22 11:43:40;;;;;;;7.88;5.38;;;;;;;;;;5032109;28;20502;-59
2022/04/22 11:46:05;;;;;;;9.23;5.85;;;;;;;;;;5032253;28;20164;-59
2022/04/22 11:48:31;;;;;;;8.45;5.80;;;;;;;;;;5032139;28;20025;-60
2022/04/22 11:50:58;;;;;;;11.77;7.72;;;;;;;;;;5032153;28;20550;-58
2022/04/22 11:53:35;;;;;;;9.70;6.70;;;;;;;;;;5032054;28;20035;-59
2022/04/22 11:56:02;;;;;;;8.75;6.38;;;;;;;;;;5032308;28;20022;-60
2022/04/22 11:58:27;;;;;;;9.25;6.47;;;;;;;;;;5031628;28;20033;-60
2022/04/22 12:06:23;;;;;;;9.10;6.70;;;;;;;;;;5032300;28;20028;-59
2022/04/22 12:08:52;;;;;;;10.25;7.13;;;;;;;;;;5031070;28;20427;-59
2022/04/22 12:11:18;;;;;;;11.80;7.90;;;;;;;;;;5032098;28;20124;-59
2022/04/22 12:13:45;;;;;;;11.57;6.60;;;;;;;;;;5031260;28;20410;-59
2022/04/22 12:16:11;;;;;;;10.80;6.60;;;;;;;;;;5031706;28;20025;-59
2022/04/22 12:18:37;;;;;;;14.48;7.70;;;;;;;;;;5031880;28;20188;-60
2022/04/22 12:21:06;;;;;;;12.98;7.75;;;;;;;;;;5031829;28;20029;-60
2022/04/22 12:23:39;;;;;;;10.38;7.18;;;;;;;;;;5030859;28;20087;-60
2022/04/22 12:26:12;;;;;;;13.68;7.47;;;;;;;;;;5031274;28;20470;-60
2022/04/22 12:28:57;;;;;;;11.52;6.60;;;;;;;;;;5031724;28;20037;-60
2022/04/22 12:31:24;;;;;;;10.38;6.10;;;;;;;;;;5011961;28;20092;-60
2022/04/22 12:34:03;;;;;;;9.45;6.75;;;;;;;;;;5011621;28;20068;-60
2022/04/22 12:36:33;;;;;;;11.98;7.63;;;;;;;;;;5012013;28;20026;-59
2022/04/22 12:38:59;;;;;;;11.05;8.15;;;;;;;;;;5011897;28;20037;-59
2022/04/22 12:41:25;;;;;;;11.52;7.93;;;;;;;;;;5011445;28;20120;-60
2022/04/22 12:43:54;;;;;;;13.20;7.90;;;;;;;;;;5012065;28;20060;-60
2022/04/22 12:52:10;;;;;;;11.23;7.75;;;;;;;;;;5012268;28;20391;-61
2022/04/22 12:54:37;;;;;;;11.70;7.83;;;;;;;;;;5011744;28;20117;-60
2022/04/22 12:57:05;;;;;;;10.60;7.93;;;;;;;;;;5011492;28;20425;-60
2022/04/22 12:59:44;;;;;;;10.35;6.93;;;;;;;;;;5011534;28;20030;-59
2022/04/22 13:02:12;;;;;;;9.90;6.22;;;;;;;;;;5013534;28;20029;-59
2022/04/22 13:05:01;;;;;;;7.85;4.85;;;;;;;;;;5019425;28;20039;-59
2022/04/22 13:07:41;;;;;;;8.50;7.40;;;;;;;;;;5020033;28;20089;-59
2022/04/22 13:10:08;;;;;;;11.03;7.77;;;;;;;;;;5031460;28;20128;-59
2022/04/22 13:12:38;;;;;;;9.80;5.20;;;;;;;;;;5031794;28;20320;-59
2022/04/22 13:15:08;;;;;;;9.05;7.03;;;;;;;;;;5031482;28;20117;-59
2022/04/22 13:17:38;;;;;;;11.68;7.60;;;;;;;;;;5018840;28;20034;-59
2022/04/22 13:20:04;;;;;;;;;;;;;;;;;;5013378;28;20477;-58
2022/04/22 13:22:30;;;;;;;10.27;5.75;;;;;;;;;;5020408;28;20004;-59
2022/04/22 13:24:55;;;;;;;14.07;6.50;;;;;;;;;;5054472;28;20495;-61
2022/04/22 13:27:21;;;;;;;9.13;6.70;;;;;;;;;;5054664;28;20425;-60
2022/04/22 13:29:46;;;;;;;9.68;7.65;;;;;;;;;;5054522;28;20147;-60
2022/04/22 13:32:12;;;;;;;12.55;7.53;;;;;;;;;;5054705;28;20025;-60
2022/04/22 13:34:37;;;;;;;8.82;6.72;;;;;;;;;;5054753;28;20445;-60
2022/04/22 13:37:03;;;;;;;10.52;7.95;;;;;;;;;;5054499;28;20481;-58
2022/04/22 13:39:29;;;;;;;12.60;8.30;;;;;;;;;;5054159;28;20377;-61
2022/04/22 13:41:54;;;;;;;7.78;6.03;;;;;;;;;;5054474;28;20458;-60
2022/04/22 13:52:21;;;;;;;8.13;6.22;;;;;;;;;;5054250;28;20017;-59
2022/04/22 13:52:33;;;;;;;9.25;5.57;;;;;;;;;;5034064;28;20083;-60
2022/04/22 13:54:59;;;;;;;10.88;8.55;;;;;;;;;;5034053;28;20021;-59
2022/04/22 13:57:25;;;;;;;9.43;7.07;;;;;;;;;;5034113;28;20429;-60
2022/04/22 13:59:50;;;;;;;7.97;6.35;;;;;;;;;;5034076;28;20033;-59
2022/04/22 14:02:16;;;;;;;10.07;7.55;;;;;;;;;;5034115;28;20108;-59
2022/04/22 14:04:42;;;;;;;8.32;6.40;;;;;;;;;;5033479;28;20455;-60
2022/04/22 14:07:08;;;;;;;12.35;8.45;;;;;;;;;;5033938;28;20034;-59
2022/04/22 14:09:35;;;;;;;10.85;8.82;;;;;;;;;;5033593;28;20585;-60
2022/04/22 14:12:01;;;;;;;10.00;7.35;;;;;;;;;;5027593;28;20024;-60
2022/04/22 14:14:27;;;;;;;9.48;7.47;;;;;;;;;;5012609;28;20041;-59
2022/04/22 14:16:52;;;;;;;7.18;4.78;;;;;;;;;;5014022;28;20041;-60
2022/04/22 14:19:18;;;;;;;6.63;4.90;;;;;;;;;;5013860;28;20044;-60
2022/04/22 14:21:44;;;;;;;8.30;5.13;;;;;;;;;;5013505;28;20501;-60
2022/04/22 14:24:10;;;;;;;14.50;5.78;;;;;;;;;;5046169;28;20075;-60
2022/04/22 14:26:35;;;;;;;6.60;4.65;;;;;;;;;;5053566;28;20028;-60
2022/04/22 14:29:02;;;;;;;7.03;4.60;;;;;;;;;;5053466;28;20108;-60
2022/04/22 14:31:28;;;;;;;5.90;4.88;;;;;;;;;;5052217;28;20052;-59
2022/04/22 14:33:54;;;;;;;9.70;5.35;;;;;;;;;;5053458;28;20029;-59
2022/04/22 14:36:20;;;;;;;8.07;5.55;;;;;;;;;;5053348;28;20032;-59
2022/04/22 14:38:47;;;;;;;12.20;8.07;;;;;;;;;;5052902;28;20494;-59
2022/04/22 14:41:15;;;;;;;7.93;5.07;;;;;;;;;;5053272;28;20057;-59
2022/04/22 14:43:41;;;;;;;5.95;3.90;;;;;;;;;;5053128;28;20041;-59
2022/04/22 14:46:06;;;;;;;5.82;4.07;;;;;;;;;;5053387;28;20064;-59
2022/04/22 14:48:32;;;;;;;7.30;4.38;;;;;;;;;;5053005;28;20418;-59
2022/04/22 14:50:58;;;;;;;6.03;3.72;;;;;;;;;;5052797;28;20071;-61
2022/04/22 14:53:23;;;;;;;6.38;4.10;;;;;;;;;;5053064;28;20021;-60
2022/04/22 14:55:49;;;;;;;4.85;3.55;;;;;;;;;;5053157;28;20082;-61
2022/04/22 14:58:15;;;;;;;6.28;3.60;;;;;;;;;;5052951;28;20032;-59
2022/04/22 15:00:40;;;;;;;9.40;3.60;;;;;;;;;;5052770;28;20047;-60
2022/04/22 15:03:06;;;;;;;4.57;2.80;;;;;;;;;;5052919;28;20024;-59
2022/04/22 15:05:32;;;;;;;7.18;3.65;;;;;;;;;;5052497;28;20112;-58
2022/04/22 15:07:58;;;;;;;5.43;3.40;;;;;;;;;;5053089;28;20074;-60
2022/04/22 15:10:24;;;;;;;5.22;2.42;;;;;;;;;;5052718;28;20028;-59
2022/04/22 15:12:50;;;;;;;5.35;2.75;;;;;;;;;;5052802;28;20024;-60
2022/04/22 15:15:16;;;;;;;6.13;2.90;;;;;;;;;;5052504;28;20036;-59
2022/04/22 15:25:53;;;;;;;5.28;2.47;;;;;;;;;;5032906;28;20099;-60
2022/04/22 15:28:19;;;;;;;3.65;2.38;;;;;;;;;;5031838;28;20463;-59
2022/04/22 15:31:01;;;;;;;4.03;2.20;;;;;;;;;;5032417;28;20030;-60
2022/04/22 15:33:27;;;;;;;3.40;2.10;;;;;;;;;;5032281;28;20071;-60
2022/04/22 15:35:53;;;;;;;3.78;2.13;;;;;;;;;;5032351;28;20044;-59
2022/04/22 15:38:20;;;;;;;3.55;2.10;;;;;;;;;;5032228;28;20030;-60
2022/04/22 15:40:46;;;;;;;4.93;2.30;;;;;;;;;;5032403;28;20025;-60
2022/04/22 15:43:12;;;;;;;4.78;2.50;;;;;;;;;;5031168;28;20039;-60
2022/04/22 15:45:37;;;;;;;2.35;1.83;;;;;;;;;;5032159;28;20034;-60
2022/04/22 15:48:04;;;;;;;2.90;1.88;;;;;;;;;;5032290;28;20029;-60
2022/04/22 15:50:29;;;;;;;3.42;1.80;;;;;;;;;;5031824;28;20061;-60
2022/04/22 15:52:56;;;;;;;3.25;1.98;;;;;;;;;;5032153;28;20053;-60
2022/04/22 15:55:23;;;;;;;2.88;1.65;;;;;;;;;;5031961;28;20033;-60
2022/04/22 15:57:48;;;;;;;2.38;1.70;;;;;;;;;;5032058;28;20030;-60
2022/04/22 16:00:15;;;;;;;2.80;1.70;;;;;;;;;;5032008;28;20040;-60